Time;durP1;ratioP1;P1;durP2;ratioP2;P2;SDS_P1;SDS_P2;PMS_P1;PMS_P2;Temp;Humidity;BMP_temperature;BMP_pressure;BME280_temperature;BME280_humidity;BME280_pressure;Samples;Min_cycle;Max_cycle;Signal;HPM_P1;HPM_P2
2023/02/16 00:01:19;;;;;;;130.73;62.53;;;;;;;;;;6323268;28;20051;-71
2023/02/16 00:04:22;;;;;;;91.10;43.03;;;;;;;;;;6322916;28;20066;-71
2023/02/16 00:07:24;;;;;;;104.43;51.30;;;;;;;;;;6321068;28;20107;-70
2023/02/16 00:10:27;;;;;;;85.57;41.95;;;;;;;;;;6324923;28;20266;-69
2023/02/16 00:13:44;;;;;;;78.40;38.90;;;;;;;;;;6321432;28;20964;-69
2023/02/16 00:16:47;;;;;;;79.28;39.85;;;;;;;;;;6319107;28;20100;-70
2023/02/16 00:19:48;;;;;;;78.93;39.60;;;;;;;;;;6321099;28;20074;-69
2023/02/16 00:22:50;;;;;;;91.05;41.03;;;;;;;;;;6326064;27;20037;-69
2023/02/16 00:25:52;;;;;;;79.60;39.38;;;;;;;;;;6324077;28;20072;-70
2023/02/16 00:28:57;;;;;;;81.70;40.53;;;;;;;;;;6324471;28;20070;-69
2023/02/16 00:32:01;;;;;;;82.57;40.13;;;;;;;;;;6325350;28;20054;-69
2023/02/16 00:35:05;;;;;;;81.80;41.67;;;;;;;;;;6323206;28;20052;-69
2023/02/16 00:38:07;;;;;;;76.85;39.58;;;;;;;;;;6325600;28;20101;-70
2023/02/16 00:41:49;;;;;;;83.60;40.90;;;;;;;;;;6327451;28;20089;-69
2023/02/16 00:44:41;;;;;;;76.95;38.80;;;;;;;;;;6325245;27;20041;-69
2023/02/16 00:47:45;;;;;;;;;;;;;;;;;;6328330;28;20286;-70
2023/02/16 00:50:47;;;;;;;76.22;39.47;;;;;;;;;;6324509;27;20419;-69
2023/02/16 00:53:49;;;;;;;77.55;38.78;;;;;;;;;;6325541;28;20051;-69
2023/02/16 00:56:50;;;;;;;89.18;39.22;;;;;;;;;;6325658;28;20078;-69
2023/02/16 00:59:58;;;;;;;81.22;39.72;;;;;;;;;;6327048;28;20304;-69
2023/02/16 01:03:03;;;;;;;76.63;40.08;;;;;;;;;;6324263;28;20336;-70
2023/02/16 01:12:43;;;;;;;77.13;40.58;;;;;;;;;;6324377;28;20055;-69
2023/02/16 01:15:45;;;;;;;85.80;40.63;;;;;;;;;;6324419;28;20229;-70
2023/02/16 01:18:49;;;;;;;83.65;41.42;;;;;;;;;;6325131;28;20054;-70
2023/02/16 01:21:51;;;;;;;85.18;40.90;;;;;;;;;;6321486;27;20043;-70
2023/02/16 01:24:53;;;;;;;83.03;42.33;;;;;;;;;;6324876;28;20051;-70
2023/02/16 01:27:54;;;;;;;81.10;41.70;;;;;;;;;;6326876;28;20050;-69
2023/02/16 01:30:56;;;;;;;84.80;42.97;;;;;;;;;;6323853;28;20059;-70
2023/02/16 01:33:59;;;;;;;86.10;42.72;;;;;;;;;;6324445;28;20101;-69
2023/02/16 01:37:01;;;;;;;83.32;42.50;;;;;;;;;;6322799;28;20048;-70
2023/02/16 01:40:02;;;;;;;85.07;41.88;;;;;;;;;;6326309;27;20071;-69
2023/02/16 01:43:09;;;;;;;86.88;42.17;;;;;;;;;;6327148;28;20097;-70
2023/02/16 01:46:14;;;;;;;83.38;41.03;;;;;;;;;;6325813;28;20470;-70
2023/02/16 01:49:20;;;;;;;86.78;42.08;;;;;;;;;;6323466;27;20223;-69
2023/02/16 01:52:27;;;;;;;81.88;41.58;;;;;;;;;;6325572;28;20332;-69
2023/02/16 01:55:31;;;;;;;81.00;41.55;;;;;;;;;;6323452;27;20085;-69
2023/02/16 01:58:38;;;;;;;87.07;42.55;;;;;;;;;;6322560;27;20335;-69
2023/02/16 02:01:42;;;;;;;87.40;40.97;;;;;;;;;;6323726;28;20132;-69
2023/02/16 02:08:23;;;;;;;86.95;40.72;;;;;;;;;;6323163;28;20224;-69
2023/02/16 02:11:28;;;;;;;79.80;41.40;;;;;;;;;;6323834;28;20356;-70
2023/02/16 02:14:32;;;;;;;87.35;41.20;;;;;;;;;;6320528;28;20449;-69
2023/02/16 02:17:34;;;;;;;97.13;42.80;;;;;;;;;;6327824;28;20062;-70
2023/02/16 02:24:44;;;;;;;86.15;42.58;;;;;;;;;;6326141;28;20056;-69
2023/02/16 02:27:53;;;;;;;85.10;41.70;;;;;;;;;;6324847;28;20040;-70
2023/02/16 02:31:00;;;;;;;85.88;42.65;;;;;;;;;;6329157;28;20052;-69
2023/02/16 02:34:11;;;;;;;88.22;40.72;;;;;;;;;;6322311;28;20043;-70
2023/02/16 02:37:19;;;;;;;83.43;40.08;;;;;;;;;;6308731;28;20056;-69
2023/02/16 02:40:28;;;;;;;80.07;42.17;;;;;;;;;;6327721;28;20044;-70
2023/02/16 02:43:36;;;;;;;76.72;39.67;;;;;;;;;;6324324;28;20059;-69
2023/02/16 02:46:38;;;;;;;83.28;41.15;;;;;;;;;;6328222;28;20052;-69
2023/02/16 02:49:40;;;;;;;81.03;39.78;;;;;;;;;;6329646;28;20052;-70
2023/02/16 02:52:42;;;;;;;78.32;39.28;;;;;;;;;;6321936;28;20048;-69
2023/02/16 03:02:29;;;;;;;78.72;39.70;;;;;;;;;;6320644;28;20142;-71
2023/02/16 03:05:31;;;;;;;78.85;40.50;;;;;;;;;;6323243;28;20165;-72
2023/02/16 03:08:36;;;;;;;87.47;40.13;;;;;;;;;;6322669;28;20089;-70
2023/02/16 03:15:00;;;;;;;85.57;40.92;;;;;;;;;;6323603;28;20119;-69
2023/02/16 03:31:24;;;;;;;82.32;42.67;;;;;;;;;;6322836;28;20051;-70
2023/02/16 03:34:26;;;;;;;85.45;43.80;;;;;;;;;;6327093;28;20051;-71
2023/02/16 03:37:28;;;;;;;85.63;43.83;;;;;;;;;;6323092;28;20205;-70
2023/02/16 03:40:32;;;;;;;82.15;43.38;;;;;;;;;;6319030;28;20055;-70
2023/02/16 03:43:33;;;;;;;86.68;43.67;;;;;;;;;;6325607;28;20051;-70
2023/02/16 03:46:36;;;;;;;83.03;45.00;;;;;;;;;;6322500;28;20392;-70
2023/02/16 03:49:38;;;;;;;86.93;43.55;;;;;;;;;;6326070;28;20048;-69
2023/02/16 03:52:40;;;;;;;87.07;43.15;;;;;;;;;;6322827;28;20044;-70
2023/02/16 03:55:44;;;;;;;81.38;42.13;;;;;;;;;;6322859;28;20060;-69
2023/02/16 03:58:46;;;;;;;80.47;41.90;;;;;;;;;;6328312;28;20115;-69
2023/02/16 04:01:49;;;;;;;75.03;40.75;;;;;;;;;;6327394;27;20055;-69
2023/02/16 04:04:50;;;;;;;78.53;41.78;;;;;;;;;;6329336;27;20058;-69
2023/02/16 04:07:52;;;;;;;76.38;39.47;;;;;;;;;;6326297;28;20052;-69
2023/02/16 04:10:56;;;;;;;72.85;40.47;;;;;;;;;;6323952;28;20044;-69
2023/02/16 04:13:56;;;;;;;76.72;41.03;;;;;;;;;;6326424;27;20103;-70
2023/02/16 04:16:59;;;;;;;76.07;41.03;;;;;;;;;;6326197;27;20123;-69
2023/02/16 04:20:01;;;;;;;69.18;37.88;;;;;;;;;;6329246;28;20471;-69
2023/02/16 04:23:03;;;;;;;77.90;38.03;;;;;;;;;;6327308;28;20062;-69
2023/02/16 04:26:05;;;;;;;80.30;39.65;;;;;;;;;;6324821;28;20061;-69
2023/02/16 04:29:07;;;;;;;81.35;40.63;;;;;;;;;;6326805;28;20059;-70
2023/02/16 04:32:10;;;;;;;79.30;39.50;;;;;;;;;;6324214;28;20064;-69
2023/02/16 04:35:12;;;;;;;84.80;39.75;;;;;;;;;;6326037;28;20074;-69
2023/02/16 04:38:14;;;;;;;76.95;39.10;;;;;;;;;;6326643;28;20108;-69
2023/02/16 04:41:15;;;;;;;83.13;41.67;;;;;;;;;;6321769;28;20071;-69
2023/02/16 04:44:17;;;;;;;83.13;40.13;;;;;;;;;;6330944;28;20040;-70
2023/02/16 04:47:21;;;;;;;72.32;38.03;;;;;;;;;;6328051;27;20113;-69
2023/02/16 04:50:23;;;;;;;;;;;;;;;;;;6328972;28;20075;-69
2023/02/16 04:53:24;;;;;;;71.55;36.72;;;;;;;;;;6325106;28;19931;-69
2023/02/16 04:56:27;;;;;;;75.40;38.83;;;;;;;;;;6325916;28;20063;-70
2023/02/16 04:59:28;;;;;;;72.22;39.15;;;;;;;;;;6325021;28;20051;-69
2023/02/16 05:02:32;;;;;;;73.30;39.22;;;;;;;;;;6325586;28;20253;-69
2023/02/16 05:05:37;;;;;;;76.50;38.72;;;;;;;;;;6327225;28;20343;-70
2023/02/16 05:08:39;;;;;;;73.22;38.80;;;;;;;;;;6325378;27;20048;-69
2023/02/16 05:14:59;;;;;;;76.25;38.10;;;;;;;;;;6325799;27;20047;-70
2023/02/16 05:18:02;;;;;;;73.55;37.90;;;;;;;;;;6325873;28;20267;-69
2023/02/16 05:24:24;;;;;;;65.80;34.05;;;;;;;;;;6327330;27;20336;-69
2023/02/16 05:27:28;;;;;;;70.35;35.33;;;;;;;;;;6325136;28;20044;-69
2023/02/16 05:30:30;;;;;;;58.17;32.92;;;;;;;;;;6325814;27;20056;-69
2023/02/16 05:33:33;;;;;;;59.72;33.30;;;;;;;;;;6323518;28;21103;-69
2023/02/16 05:36:34;;;;;;;64.70;33.42;;;;;;;;;;6325767;27;20156;-69
2023/02/16 05:39:36;;;;;;;57.00;30.45;;;;;;;;;;6325725;28;20052;-69
2023/02/16 05:42:37;;;;;;;52.95;30.90;;;;;;;;;;6327483;27;20055;-69
2023/02/16 05:45:39;;;;;;;50.25;27.88;;;;;;;;;;6325299;28;20093;-69
2023/02/16 05:48:42;;;;;;;61.05;33.10;;;;;;;;;;6319382;28;20052;-69
2023/02/16 05:51:44;;;;;;;61.00;31.33;;;;;;;;;;6322182;28;20280;-69
2023/02/16 05:54:46;;;;;;;54.22;31.55;;;;;;;;;;6326173;27;20097;-69
2023/02/16 05:57:48;;;;;;;55.28;30.58;;;;;;;;;;6326300;27;20105;-69
2023/02/16 06:00:49;;;;;;;61.10;32.00;;;;;;;;;;6322480;28;20176;-69
2023/02/16 06:03:52;;;;;;;68.82;33.60;;;;;;;;;;6322890;28;20340;-69
2023/02/16 06:06:54;;;;;;;63.03;33.15;;;;;;;;;;6323079;28;20069;-69
2023/02/16 06:09:56;;;;;;;63.78;33.08;;;;;;;;;;6320821;27;20059;-70
2023/02/16 06:12:57;;;;;;;62.22;31.67;;;;;;;;;;6320302;28;20083;-71
2023/02/16 06:15:59;;;;;;;59.55;31.75;;;;;;;;;;6324633;28;20300;-69
2023/02/16 06:19:03;;;;;;;58.63;31.42;;;;;;;;;;6329159;28;20385;-68
2023/02/16 06:22:04;;;;;;;53.23;28.67;;;;;;;;;;6326769;27;20391;-69
2023/02/16 06:25:07;;;;;;;57.80;31.33;;;;;;;;;;6323020;28;20051;-69
2023/02/16 06:28:08;;;;;;;62.63;32.15;;;;;;;;;;6322208;28;20056;-69
2023/02/16 06:31:10;;;;;;;59.17;31.17;;;;;;;;;;6320814;28;20205;-70
2023/02/16 06:34:13;;;;;;;63.25;31.95;;;;;;;;;;6322680;28;20226;-68
2023/02/16 06:37:15;;;;;;;63.03;32.13;;;;;;;;;;6321519;27;20093;-69
2023/02/16 06:40:18;;;;;;;60.80;31.70;;;;;;;;;;6321496;28;20109;-69
2023/02/16 06:43:19;;;;;;;59.42;32.15;;;;;;;;;;6326163;28;20056;-69
2023/02/16 06:46:21;;;;;;;60.83;33.17;;;;;;;;;;6319738;28;20047;-69
2023/02/16 06:49:25;;;;;;;55.42;31.70;;;;;;;;;;6325021;28;20057;-70
2023/02/16 06:52:26;;;;;;;70.00;33.03;;;;;;;;;;6322230;27;20106;-69
2023/02/16 06:55:30;;;;;;;63.85;32.53;;;;;;;;;;6320028;28;20093;-69
2023/02/16 06:58:32;;;;;;;57.80;33.08;;;;;;;;;;6326746;27;20059;-69
2023/02/16 07:01:34;;;;;;;56.58;31.80;;;;;;;;;;6321055;28;20592;-69
2023/02/16 07:04:37;;;;;;;56.83;30.95;;;;;;;;;;6323529;28;20043;-70
2023/02/16 07:07:39;;;;;;;58.10;32.33;;;;;;;;;;6322374;27;20048;-69
2023/02/16 07:10:44;;;;;;;62.17;33.45;;;;;;;;;;6322957;28;20064;-69
2023/02/16 07:13:46;;;;;;;63.05;32.90;;;;;;;;;;6324578;28;20048;-69
2023/02/16 07:16:48;;;;;;;64.10;32.03;;;;;;;;;;6319040;28;20300;-69
2023/02/16 07:19:51;;;;;;;65.25;32.60;;;;;;;;;;6323649;28;20343;-69
2023/02/16 07:22:53;;;;;;;61.33;32.03;;;;;;;;;;6320473;28;20177;-69
2023/02/16 07:25:55;;;;;;;60.47;32.25;;;;;;;;;;6321564;28;20059;-69
2023/02/16 07:28:57;;;;;;;62.22;33.03;;;;;;;;;;6323790;28;20371;-69
2023/02/16 07:31:58;;;;;;;56.33;32.05;;;;;;;;;;6328448;27;21246;-70
2023/02/16 07:35:01;;;;;;;60.58;32.38;;;;;;;;;;6325075;27;20123;-69
2023/02/16 07:38:04;;;;;;;57.72;32.25;;;;;;;;;;6327590;27;20063;-69
2023/02/16 07:41:06;;;;;;;64.25;32.08;;;;;;;;;;6327640;28;20274;-69
2023/02/16 07:44:08;;;;;;;65.75;30.70;;;;;;;;;;6326658;28;20055;-69
2023/02/16 07:47:09;;;;;;;46.67;25.88;;;;;;;;;;6329146;27;20060;-69
2023/02/16 07:50:12;;;;;;;47.38;26.75;;;;;;;;;;6327240;28;20040;-69
2023/02/16 07:53:14;;;;;;;41.78;24.20;;;;;;;;;;6326274;28;20059;-70
2023/02/16 07:56:19;;;;;;;45.75;24.55;;;;;;;;;;6326193;28;20056;-70
2023/02/16 07:59:21;;;;;;;43.22;24.55;;;;;;;;;;6326717;28;20170;-69
2023/02/16 08:02:26;;;;;;;40.25;22.98;;;;;;;;;;6327403;28;20051;-69
2023/02/16 08:05:29;;;;;;;40.60;22.80;;;;;;;;;;6326819;28;20048;-69
2023/02/16 08:08:31;;;;;;;39.35;23.40;;;;;;;;;;6328093;28;20256;-70
2023/02/16 08:11:32;;;;;;;39.63;23.40;;;;;;;;;;6326495;28;20044;-69
2023/02/16 08:14:34;;;;;;;36.13;22.48;;;;;;;;;;6325498;28;20044;-69
2023/02/16 08:17:36;;;;;;;34.47;21.20;;;;;;;;;;6325014;28;20064;-70
2023/02/16 08:20:39;;;;;;;33.65;20.90;;;;;;;;;;6328869;27;20173;-69
2023/02/16 08:23:42;;;;;;;38.10;21.70;;;;;;;;;;6326701;27;20048;-69
2023/02/16 08:26:48;;;;;;;34.80;20.67;;;;;;;;;;6328131;27;20115;-70
2023/02/16 08:29:50;;;;;;;32.25;20.48;;;;;;;;;;6327540;28;20052;-69
2023/02/16 08:32:52;;;;;;;34.15;20.90;;;;;;;;;;6326137;28;20056;-69
2023/02/16 08:35:55;;;;;;;39.13;21.23;;;;;;;;;;6328175;28;20094;-69
2023/02/16 08:38:57;;;;;;;32.92;21.38;;;;;;;;;;6325352;28;20104;-69
2023/02/16 08:41:59;;;;;;;37.10;21.33;;;;;;;;;;6325022;28;20351;-70
2023/02/16 08:45:02;;;;;;;36.63;20.60;;;;;;;;;;6324526;27;20048;-69
2023/02/16 08:48:04;;;;;;;33.03;20.00;;;;;;;;;;6326872;27;20079;-70
2023/02/16 08:51:08;;;;;;;30.45;19.60;;;;;;;;;;6327419;28;20308;-70
2023/02/16 08:54:15;;;;;;;27.55;18.58;;;;;;;;;;6326254;28;20052;-69
2023/02/16 08:57:17;;;;;;;29.40;19.08;;;;;;;;;;6326102;28;20055;-70
2023/02/16 09:00:36;;;;;;;30.55;18.70;;;;;;;;;;6327980;28;20361;-69
2023/02/16 09:03:41;;;;;;;27.13;17.60;;;;;;;;;;6327253;28;20342;-69
2023/02/16 09:06:44;;;;;;;;;;;;;;;;;;6327927;28;20044;-70
2023/02/16 09:09:46;;;;;;;26.92;16.98;;;;;;;;;;6327605;28;20108;-69
2023/02/16 09:12:48;;;;;;;26.92;17.17;;;;;;;;;;6326032;28;20395;-69
2023/02/16 09:15:50;;;;;;;27.23;16.83;;;;;;;;;;6328185;27;20060;-69
2023/02/16 09:18:52;;;;;;;35.97;18.25;;;;;;;;;;6331361;28;20040;-69
2023/02/16 09:21:55;;;;;;;25.15;15.50;;;;;;;;;;6324018;28;20059;-70
2023/02/16 09:24:57;;;;;;;28.98;17.77;;;;;;;;;;6321393;27;20113;-69
2023/02/16 09:27:59;;;;;;;24.13;16.95;;;;;;;;;;6326053;28;20266;-70
2023/02/16 09:31:08;;;;;;;25.42;16.40;;;;;;;;;;6325269;27;20079;-70
2023/02/16 09:34:16;;;;;;;23.35;16.70;;;;;;;;;;6324681;28;20050;-69
2023/02/16 09:37:19;;;;;;;26.08;16.60;;;;;;;;;;6323073;28;20052;-69
2023/02/16 09:40:21;;;;;;;35.47;17.90;;;;;;;;;;6324199;27;20055;-69
2023/02/16 09:43:31;;;;;;;28.23;18.65;;;;;;;;;;6326583;27;20062;-69
2023/02/16 09:46:33;;;;;;;29.52;17.60;;;;;;;;;;6324574;28;20056;-69
2023/02/16 09:49:37;;;;;;;19.65;14.25;;;;;;;;;;6327699;28;20063;-69
2023/02/16 09:52:45;;;;;;;23.52;15.52;;;;;;;;;;6324444;27;20397;-69
2023/02/16 09:55:53;;;;;;;24.55;14.57;;;;;;;;;;6324203;28;20128;-70
2023/02/16 09:58:58;;;;;;;25.75;14.15;;;;;;;;;;6326284;28;20089;-69
2023/02/16 10:02:15;;;;;;;23.02;14.90;;;;;;;;;;6323164;28;20254;-70
2023/02/16 10:05:20;;;;;;;20.20;13.02;;;;;;;;;;6322956;28;20282;-69
2023/02/16 10:08:27;;;;;;;58.67;37.88;;;;;;;;;;6323028;28;20089;-70
2023/02/16 10:11:45;;;;;;;38.60;21.27;;;;;;;;;;6326776;28;20052;-71
2023/02/16 10:14:49;;;;;;;47.13;25.35;;;;;;;;;;6327441;27;20056;-71
2023/02/16 10:17:54;;;;;;;39.05;23.65;;;;;;;;;;6327000;28;20156;-71
2023/02/16 10:21:00;;;;;;;23.77;15.60;;;;;;;;;;6325908;27;20082;-71
2023/02/16 10:24:06;;;;;;;26.73;18.13;;;;;;;;;;6324287;27;20047;-71
2023/02/16 10:27:13;;;;;;;31.42;18.58;;;;;;;;;;6323977;27;20344;-70
2023/02/16 10:30:17;;;;;;;18.67;13.15;;;;;;;;;;6324547;28;20052;-70
2023/02/16 10:33:23;;;;;;;;;;;;;;;;;;6326107;27;20040;-69
2023/02/16 10:36:29;;;;;;;17.80;12.15;;;;;;;;;;6324711;28;19931;-69
2023/02/16 10:39:37;;;;;;;18.08;12.20;;;;;;;;;;6323125;27;20138;-69
2023/02/16 10:42:42;;;;;;;16.25;12.07;;;;;;;;;;6322122;28;20083;-69
2023/02/16 10:45:47;;;;;;;15.52;12.60;;;;;;;;;;6323844;28;20070;-69
2023/02/16 10:48:53;;;;;;;18.58;12.98;;;;;;;;;;6323628;28;20836;-69
2023/02/16 10:51:55;;;;;;;20.40;13.45;;;;;;;;;;6321695;28;20107;-69
2023/02/16 10:54:58;;;;;;;17.42;12.82;;;;;;;;;;6321025;28;20057;-69
2023/02/16 10:58:01;;;;;;;17.37;13.20;;;;;;;;;;6322672;28;20059;-69
2023/02/16 11:01:09;;;;;;;18.60;13.05;;;;;;;;;;6321963;28;20347;-69
2023/02/16 11:04:29;;;;;;;19.42;12.20;;;;;;;;;;6324949;28;20113;-69
2023/02/16 11:07:32;;;;;;;18.55;12.20;;;;;;;;;;6323564;28;20036;-69
2023/02/16 11:10:38;;;;;;;14.52;11.77;;;;;;;;;;6321414;28;20081;-69
2023/02/16 11:13:40;;;;;;;16.02;12.38;;;;;;;;;;6322606;28;20052;-69
2023/02/16 11:16:42;;;;;;;16.02;12.45;;;;;;;;;;6321543;27;20439;-70
2023/02/16 11:19:49;;;;;;;18.33;11.90;;;;;;;;;;6322852;27;20231;-69
2023/02/16 11:22:51;;;;;;;17.67;12.60;;;;;;;;;;6324158;28;20040;-69
2023/02/16 11:26:01;;;;;;;15.70;11.88;;;;;;;;;;6321491;28;20054;-69
2023/02/16 11:29:08;;;;;;;15.30;11.30;;;;;;;;;;6321339;28;20056;-69
2023/02/16 11:32:11;;;;;;;17.65;11.90;;;;;;;;;;6323588;28;20397;-70
2023/02/16 11:35:14;;;;;;;13.63;9.73;;;;;;;;;;6320901;28;20040;-70
2023/02/16 11:38:28;;;;;;;17.15;9.63;;;;;;;;;;6323476;28;20336;-71
2023/02/16 11:41:32;;;;;;;13.05;10.20;;;;;;;;;;6321975;28;20040;-70
2023/02/16 11:44:37;;;;;;;12.95;9.88;;;;;;;;;;6324707;27;20340;-71
2023/02/16 11:47:41;;;;;;;13.32;10.20;;;;;;;;;;6322280;28;20221;-70
2023/02/16 11:50:55;;;;;;;13.55;9.52;;;;;;;;;;6321946;28;20052;-70
2023/02/16 11:54:00;;;;;;;16.25;10.77;;;;;;;;;;6322632;28;20064;-70
2023/02/16 11:57:08;;;;;;;15.70;10.57;;;;;;;;;;6323599;27;20105;-70
2023/02/16 12:00:17;;;;;;;11.57;9.68;;;;;;;;;;6323938;28;20047;-70
2023/02/16 12:03:25;;;;;;;14.95;11.10;;;;;;;;;;6323837;28;20052;-70
2023/02/16 12:06:41;;;;;;;16.58;11.25;;;;;;;;;;6322529;27;20328;-70
2023/02/16 12:09:49;;;;;;;14.30;11.40;;;;;;;;;;6321410;28;20052;-70
2023/02/16 12:12:58;;;;;;;16.13;10.75;;;;;;;;;;6321422;27;20055;-71
2023/02/16 12:16:03;;;;;;;17.52;12.10;;;;;;;;;;6323941;28;20063;-70
2023/02/16 12:19:18;;;;;;;17.27;11.90;;;;;;;;;;6323710;28;20240;-70
2023/02/16 12:22:28;;;;;;;18.05;12.13;;;;;;;;;;6327900;27;20094;-70
2023/02/16 12:25:36;;;;;;;19.50;13.45;;;;;;;;;;6329925;28;20404;-70
2023/02/16 12:28:42;;;;;;;16.67;13.00;;;;;;;;;;6326819;28;20100;-70
2023/02/16 12:32:06;;;;;;;19.20;13.52;;;;;;;;;;6327158;28;20263;-70
2023/02/16 12:35:37;;;;;;;18.33;13.37;;;;;;;;;;6320529;27;20070;-70
2023/02/16 12:38:48;;;;;;;17.55;12.23;;;;;;;;;;6327282;27;20048;-71
2023/02/16 12:41:58;;;;;;;20.27;14.13;;;;;;;;;;6327228;27;20499;-70
2023/02/16 12:45:04;;;;;;;18.40;13.70;;;;;;;;;;6327785;28;20055;-70
2023/02/16 12:48:18;;;;;;;14.32;12.00;;;;;;;;;;6327471;28;20056;-70
2023/02/16 12:51:21;;;;;;;;;;;;;;;;;;6327558;27;20078;-70
2023/02/16 12:54:25;;;;;;;16.73;12.38;;;;;;;;;;6329634;28;19919;-70
2023/02/16 12:57:29;;;;;;;22.65;13.25;;;;;;;;;;6325871;28;20077;-70
2023/02/16 13:00:39;;;;;;;20.77;13.02;;;;;;;;;;6327299;28;20056;-71
2023/02/16 13:03:46;;;;;;;17.05;11.55;;;;;;;;;;6326281;28;20040;-70
2023/02/16 13:06:52;;;;;;;18.80;12.68;;;;;;;;;;6323461;28;20052;-70
2023/02/16 13:09:58;;;;;;;14.85;11.85;;;;;;;;;;6330615;27;20129;-71
2023/02/16 13:13:05;;;;;;;16.88;11.65;;;;;;;;;;6326069;28;20048;-70
2023/02/16 13:16:13;;;;;;;18.65;12.00;;;;;;;;;;6325682;27;20705;-70
2023/02/16 13:19:15;;;;;;;19.55;13.50;;;;;;;;;;6323734;27;20105;-70
2023/02/16 13:22:52;;;;;;;18.35;12.27;;;;;;;;;;6326080;28;20064;-70
2023/02/16 13:26:11;;;;;;;17.77;12.55;;;;;;;;;;6324676;28;20043;-70
2023/02/16 13:29:46;;;;;;;17.45;12.18;;;;;;;;;;6320753;28;20059;-70
2023/02/16 13:33:13;;;;;;;16.85;11.95;;;;;;;;;;6325653;28;20745;-70
2023/02/16 13:36:34;;;;;;;15.63;12.10;;;;;;;;;;6324551;28;20336;-70
2023/02/16 13:40:00;;;;;;;15.18;12.23;;;;;;;;;;6325259;28;20269;-72
2023/02/16 13:43:11;;;;;;;15.55;11.57;;;;;;;;;;6325016;27;20047;-71
2023/02/16 13:46:17;;;;;;;16.20;12.48;;;;;;;;;;6327339;28;20044;-71
2023/02/16 13:49:32;;;;;;;17.08;12.80;;;;;;;;;;6327682;28;20261;-70
2023/02/16 13:52:36;;;;;;;16.25;11.60;;;;;;;;;;6323457;27;20325;-70
2023/02/16 13:55:39;;;;;;;18.17;13.43;;;;;;;;;;6324094;28;20252;-72
2023/02/16 13:58:41;;;;;;;19.05;13.60;;;;;;;;;;6325204;28;20086;-72
2023/02/16 14:01:43;;;;;;;16.02;12.57;;;;;;;;;;6325240;27;20055;-73
2023/02/16 14:05:04;;;;;;;18.48;13.32;;;;;;;;;;6324620;28;20060;-72
2023/02/16 14:08:24;;;;;;;38.35;25.55;;;;;;;;;;6324521;28;20056;-73
2023/02/16 14:11:26;;;;;;;55.13;33.05;;;;;;;;;;6326324;27;20048;-71
2023/02/16 14:14:29;;;;;;;23.48;15.02;;;;;;;;;;6326462;27;20374;-71
2023/02/16 14:17:32;;;;;;;22.38;15.18;;;;;;;;;;6323613;28;20082;-71
2023/02/16 14:20:36;;;;;;;37.75;23.17;;;;;;;;;;6321704;28;20044;-71
2023/02/16 14:23:37;;;;;;;19.65;13.73;;;;;;;;;;6328026;28;20075;-70
2023/02/16 14:26:54;;;;;;;17.92;12.35;;;;;;;;;;6323197;28;20107;-71
2023/02/16 14:29:58;;;;;;;17.35;13.07;;;;;;;;;;6323319;27;20082;-71
2023/02/16 14:33:05;;;;;;;17.13;12.85;;;;;;;;;;6324947;27;20347;-71
2023/02/16 14:36:14;;;;;;;16.30;12.63;;;;;;;;;;6321806;28;20048;-71
2023/02/16 14:39:18;;;;;;;17.17;12.05;;;;;;;;;;6321177;28;20212;-71
2023/02/16 14:42:28;;;;;;;13.70;10.95;;;;;;;;;;6323785;28;20050;-71
2023/02/16 14:45:51;;;;;;;17.90;12.85;;;;;;;;;;6324836;27;20047;-71
2023/02/16 14:49:13;;;;;;;14.90;11.23;;;;;;;;;;6321129;28;20051;-71
2023/02/16 14:52:42;;;;;;;19.48;11.30;;;;;;;;;;6325207;27;20059;-71
2023/02/16 14:55:57;;;;;;;14.70;11.55;;;;;;;;;;6314165;28;20047;-70
2023/02/16 14:59:02;;;;;;;15.05;11.13;;;;;;;;;;6323499;28;20419;-71
2023/02/16 15:02:24;;;;;;;17.75;10.93;;;;;;;;;;6323809;27;20231;-71
2023/02/16 15:05:28;;;;;;;12.02;10.00;;;;;;;;;;6323509;27;20935;-70
2023/02/16 15:08:34;;;;;;;13.05;10.90;;;;;;;;;;6321661;28;20044;-70
2023/02/16 15:12:20;;;;;;;12.23;10.25;;;;;;;;;;6321347;28;20044;-70
2023/02/16 15:15:03;;;;;;;14.90;9.15;;;;;;;;;;6322220;28;20243;-70
2023/02/16 15:18:07;;;;;;;13.23;7.97;;;;;;;;;;6321595;28;20055;-71
2023/02/16 15:21:17;;;;;;;15.85;9.88;;;;;;;;;;6318039;28;20380;-70
2023/02/16 15:24:24;;;;;;;13.20;8.93;;;;;;;;;;6320960;27;20324;-70
2023/02/16 15:27:27;;;;;;;12.18;8.38;;;;;;;;;;6323023;27;20051;-70
2023/02/16 15:30:30;;;;;;;;;;;;;;;;;;6321328;28;20055;-70
2023/02/16 15:33:35;;;;;;;11.23;8.23;;;;;;;;;;6320826;28;19947;-70
2023/02/16 15:36:39;;;;;;;9.63;6.18;;;;;;;;;;6323048;28;20057;-70
2023/02/16 15:39:42;;;;;;;10.27;6.25;;;;;;;;;;6324393;28;20063;-71
2023/02/16 15:42:44;;;;;;;10.05;5.50;;;;;;;;;;6321314;28;20340;-70
2023/02/16 15:45:49;;;;;;;12.57;5.90;;;;;;;;;;6323515;28;20190;-69
2023/02/16 15:48:50;;;;;;;5.78;5.07;;;;;;;;;;6322266;27;20269;-70
2023/02/16 15:51:54;;;;;;;8.57;5.05;;;;;;;;;;6324348;28;20059;-70
2023/02/16 15:54:57;;;;;;;;;;;;;;;;;;6327775;27;20259;-70
2023/02/16 15:57:59;;;;;;;7.43;5.40;;;;;;;;;;6327189;28;20156;-69
2023/02/16 16:01:01;;;;;;;9.50;5.45;;;;;;;;;;6325814;28;20106;-70
2023/02/16 16:04:06;;;;;;;5.90;4.50;;;;;;;;;;6326123;28;20051;-70
2023/02/16 16:07:11;;;;;;;9.13;4.07;;;;;;;;;;6325776;28;20109;-69
2023/02/16 16:10:18;;;;;;;7.55;4.50;;;;;;;;;;6325583;27;20112;-70
2023/02/16 16:13:22;;;;;;;5.50;4.03;;;;;;;;;;6324330;28;20036;-70
2023/02/16 16:16:24;;;;;;;6.15;4.00;;;;;;;;;;6327292;28;20058;-70
2023/02/16 16:19:32;;;;;;;7.68;3.80;;;;;;;;;;6326421;28;20258;-72
2023/02/16 16:22:37;;;;;;;8.63;5.38;;;;;;;;;;6329209;27;20062;-71
2023/02/16 16:25:43;;;;;;;6.20;4.60;;;;;;;;;;6325614;27;20119;-70
2023/02/16 16:28:45;;;;;;;6.95;4.18;;;;;;;;;;6325858;28;20113;-70
2023/02/16 16:31:53;;;;;;;4.97;3.40;;;;;;;;;;6326117;28;20052;-70
2023/02/16 16:34:55;;;;;;;7.75;3.92;;;;;;;;;;6326764;28;20051;-70
2023/02/16 16:37:56;;;;;;;5.30;3.30;;;;;;;;;;6325952;28;20063;-70
2023/02/16 16:41:03;;;;;;;6.20;4.05;;;;;;;;;;6325809;28;20044;-70
2023/02/16 16:44:08;;;;;;;6.07;3.60;;;;;;;;;;6323504;27;20067;-70
2023/02/16 16:47:18;;;;;;;5.07;3.50;;;;;;;;;;6321622;27;20210;-70
2023/02/16 16:50:31;;;;;;;8.32;3.35;;;;;;;;;;6327411;28;20156;-70
2023/02/16 16:53:43;;;;;;;4.55;3.90;;;;;;;;;;6325499;27;20072;-70
2023/02/16 16:56:46;;;;;;;6.60;4.15;;;;;;;;;;6324421;27;20074;-70
2023/02/16 16:59:48;;;;;;;7.27;3.63;;;;;;;;;;6324030;28;21071;-70
2023/02/16 17:02:50;;;;;;;6.65;3.58;;;;;;;;;;6323858;27;20043;-70
2023/02/16 17:05:51;;;;;;;6.40;3.50;;;;;;;;;;6324420;28;20067;-70
2023/02/16 17:08:54;;;;;;;5.45;3.65;;;;;;;;;;6326466;28;20620;-70
2023/02/16 17:11:58;;;;;;;5.80;3.42;;;;;;;;;;6324723;27;20107;-70
2023/02/16 17:15:00;;;;;;;8.13;3.78;;;;;;;;;;6323061;27;20506;-70
2023/02/16 17:18:02;;;;;;;6.57;3.60;;;;;;;;;;6327398;28;20085;-70
2023/02/16 17:21:04;;;;;;;9.23;4.40;;;;;;;;;;6326625;27;20036;-70
2023/02/16 17:24:08;;;;;;;7.28;4.63;;;;;;;;;;6325288;27;20213;-69
2023/02/16 17:27:12;;;;;;;6.90;4.20;;;;;;;;;;6323744;27;20257;-70
2023/02/16 17:30:15;;;;;;;7.07;4.32;;;;;;;;;;6327877;27;20051;-70
2023/02/16 17:33:16;;;;;;;8.43;4.40;;;;;;;;;;6325388;28;20349;-70
2023/02/16 17:36:19;;;;;;;11.27;4.20;;;;;;;;;;6323990;27;20055;-70
2023/02/16 17:39:21;;;;;;;5.72;4.00;;;;;;;;;;6323221;28;20056;-70
2023/02/16 17:42:24;;;;;;;7.32;4.28;;;;;;;;;;6326865;28;20056;-70
2023/02/16 17:45:26;;;;;;;6.23;4.40;;;;;;;;;;6323646;28;20040;-70
2023/02/16 17:48:29;;;;;;;8.05;3.80;;;;;;;;;;6320678;27;20324;-70
2023/02/16 17:51:35;;;;;;;8.13;4.68;;;;;;;;;;6325886;28;20044;-70
2023/02/16 17:54:36;;;;;;;8.23;4.38;;;;;;;;;;6324811;28;20052;-70
2023/02/16 17:57:39;;;;;;;5.93;4.30;;;;;;;;;;6324808;28;20089;-70
2023/02/16 18:00:42;;;;;;;8.98;4.40;;;;;;;;;;6324274;28;20052;-70
2023/02/16 18:03:44;;;;;;;6.32;4.20;;;;;;;;;;6324103;28;20347;-70
2023/02/16 18:06:46;;;;;;;6.10;4.50;;;;;;;;;;6323486;28;20297;-70
2023/02/16 18:09:49;;;;;;;5.32;4.07;;;;;;;;;;6327971;27;20056;-70
2023/02/16 18:12:52;;;;;;;8.00;5.22;;;;;;;;;;6322467;27;20367;-70
2023/02/16 18:15:54;;;;;;;8.33;4.33;;;;;;;;;;6323331;28;20328;-70
2023/02/16 18:18:56;;;;;;;7.43;4.75;;;;;;;;;;6323991;28;20367;-70
2023/02/16 18:21:58;;;;;;;9.05;4.93;;;;;;;;;;6328079;28;20058;-69
2023/02/16 18:25:00;;;;;;;8.02;4.70;;;;;;;;;;6326077;28;20056;-70
2023/02/16 18:28:03;;;;;;;7.80;4.65;;;;;;;;;;6330933;27;20052;-68
2023/02/16 18:31:07;;;;;;;8.77;5.10;;;;;;;;;;6329188;28;20055;-73
2023/02/16 18:34:09;;;;;;;9.52;4.85;;;;;;;;;;6327554;28;20059;-73
2023/02/16 18:37:11;;;;;;;7.28;4.97;;;;;;;;;;6325947;28;20052;-71
2023/02/16 18:40:16;;;;;;;7.28;5.13;;;;;;;;;;6325161;28;20052;-69
2023/02/16 18:43:19;;;;;;;6.78;5.13;;;;;;;;;;6330383;28;20071;-71
2023/02/16 18:46:21;;;;;;;6.43;4.83;;;;;;;;;;6327753;27;20056;-71
2023/02/16 18:49:23;;;;;;;8.25;4.95;;;;;;;;;;6326297;28;20649;-71